Time;durP1;ratioP1;P1;durP2;ratioP2;P2;SDS_P1;SDS_P2;PMS_P1;PMS_P2;Temp;Humidity;BMP_temperature;BMP_pressure;BME280_temperature;BME280_humidity;BME280_pressure;Samples;Min_cycle;Max_cycle;Signal;HPM_P1;HPM_P2
2021/05/29 00:00:55;;;;;;;6.87;1.73;;;;;;;10.39;78.20;100703.56;125575;1104;22758;-59
2021/05/29 00:03:27;;;;;;;8.90;2.15;;;;;;;10.39;78.23;100712.72;125611;1104;25370;-59
2021/05/29 00:05:57;;;;;;;7.23;2.20;;;;;;;10.37;78.26;100709.63;125455;1104;22829;-57
2021/05/29 00:08:28;;;;;;;8.18;2.08;;;;;;;10.35;78.26;100720.48;125465;1101;22768;-59
2021/05/29 00:11:00;;;;;;;6.40;1.78;;;;;;;10.36;78.33;100707.30;125475;1104;22764;-57
2021/05/29 00:13:31;;;;;;;9.53;1.97;;;;;;;10.34;78.37;100713.36;125526;1104;22758;-62
2021/05/29 00:16:01;;;;;;;7.13;1.80;;;;;;;10.33;78.34;100713.80;125603;1097;22745;-56
2021/05/29 00:18:33;;;;;;;8.50;2.10;;;;;;;10.30;78.39;100709.95;125687;1104;22737;-59
2021/05/29 00:21:03;;;;;;;10.63;2.03;;;;;;;10.30;78.61;100711.96;125540;1097;27584;-60
2021/05/29 00:23:34;;;;;;;6.13;2.07;;;;;;;10.27;78.53;100719.24;125530;1097;26709;-59
2021/05/29 00:26:04;;;;;;;7.87;2.07;;;;;;;10.27;78.51;100710.09;125581;1097;27094;-60
2021/05/29 00:28:35;;;;;;;9.30;2.25;;;;;;;10.26;78.65;100714.14;125709;1104;22832;-59
2021/05/29 00:31:05;;;;;;;9.10;2.20;;;;;;;10.22;78.74;100708.69;125514;1104;22762;-60
2021/05/29 00:33:35;;;;;;;11.88;2.43;;;;;;;10.19;78.59;100703.27;125437;1104;22761;-62
2021/05/29 00:36:06;;;;;;;7.83;2.03;;;;;;;10.18;78.79;100710.86;125514;1097;22758;-62
2021/05/29 00:38:35;;;;;;;8.53;2.30;;;;;;;10.18;78.75;100705.28;125687;1104;22774;-57
2021/05/29 00:41:08;;;;;;;9.45;2.28;;;;;;;10.19;78.95;100712.42;125517;1104;22735;-58
2021/05/29 00:43:38;;;;;;;7.63;2.17;;;;;;;10.17;78.75;100694.59;125893;1104;22778;-57
2021/05/29 00:46:18;;;;;;;9.47;2.57;;;;;;;10.15;78.96;100697.86;125555;1104;22745;-58
2021/05/29 00:48:49;;;;;;;10.28;2.70;;;;;;;10.14;78.87;100701.13;125498;1104;22737;-60
2021/05/29 00:51:19;;;;;;;11.27;2.50;;;;;;;10.15;78.73;100697.86;125471;1102;24439;-61
2021/05/29 00:53:49;;;;;;;8.97;2.33;;;;;;;10.15;78.74;100699.87;125562;1104;22737;-60
2021/05/29 00:56:19;;;;;;;9.03;2.18;;;;;;;10.14;78.69;100704.66;125485;1096;26501;-57
2021/05/29 00:58:49;;;;;;;6.55;1.80;;;;;;;10.13;78.67;100703.13;125502;1104;24378;-60
2021/05/29 01:01:20;;;;;;;9.13;1.90;;;;;;;10.11;78.87;100702.82;125575;1104;22763;-60
2021/05/29 01:03:53;;;;;;;11.70;2.40;;;;;;;10.11;78.88;100705.61;126668;1086;23364;-58
2021/05/29 01:06:23;;;;;;;9.00;2.05;;;;;;;10.10;78.81;100703.23;126201;1101;22743;-59
2021/05/29 01:08:54;;;;;;;;;;;;;;;10.10;78.83;100706.02;130075;1101;22496;-58
2021/05/29 01:11:25;;;;;;;9.43;2.67;;;;;;;10.09;78.81;100704.48;129310;1096;21483;-61
2021/05/29 01:13:58;;;;;;;9.87;2.77;;;;;;;10.08;78.93;100709.28;126219;1101;22761;-59
2021/05/29 01:16:44;;;;;;;8.23;2.40;;;;;;;10.07;78.83;100712.55;126097;1104;22774;-59
2021/05/29 01:19:17;;;;;;;8.50;2.30;;;;;;;10.07;78.77;100707.75;126119;1104;22852;-59
2021/05/29 01:21:50;;;;;;;8.77;2.43;;;;;;;10.07;78.85;100710.54;126219;1096;22852;-58
2021/05/29 01:24:22;;;;;;;10.10;2.50;;;;;;;10.06;78.83;100700.61;126170;1101;22761;-59
2021/05/29 01:26:54;;;;;;;12.03;2.80;;;;;;;10.05;78.78;100704.65;126383;1096;22732;-58
2021/05/29 01:29:24;;;;;;;8.77;2.30;;;;;;;10.05;78.88;100707.44;126250;1097;22723;-58
2021/05/29 01:32:01;;;;;;;6.80;2.40;;;;;;;10.04;78.88;100708.66;126269;1101;22761;-58
2021/05/29 01:34:34;;;;;;;8.63;2.07;;;;;;;10.04;78.89;100705.88;126261;1101;22747;-57
2021/05/29 01:37:05;;;;;;;8.77;2.23;;;;;;;10.02;78.94;100702.77;126178;1101;22726;-59
2021/05/29 01:39:39;;;;;;;7.80;2.57;;;;;;;10.01;78.97;100701.24;126396;1096;22704;-59
2021/05/29 01:42:12;;;;;;;6.90;2.33;;;;;;;10.00;78.85;100702.47;126322;1101;22707;-59
2021/05/29 01:44:42;;;;;;;7.80;2.07;;;;;;;9.98;78.91;100702.16;126233;1097;27100;-58
2021/05/29 01:47:12;;;;;;;10.33;2.30;;;;;;;9.96;78.97;100706.64;126301;1101;22735;-59
2021/05/29 01:49:42;;;;;;;7.58;2.23;;;;;;;9.96;79.01;100706.64;126474;1097;22762;-59
2021/05/29 01:52:12;;;;;;;8.23;2.40;;;;;;;9.94;78.90;100707.11;126245;1101;22745;-58
2021/05/29 01:54:42;;;;;;;8.28;2.20;;;;;;;9.91;78.79;100707.27;126327;1101;22740;-58
2021/05/29 01:57:12;;;;;;;6.90;2.03;;;;;;;9.89;78.78;100704.92;126277;1101;22765;-58
2021/05/29 01:59:42;;;;;;;9.93;2.20;;;;;;;9.88;78.76;100706.17;126159;1101;22833;-59
2021/05/29 02:02:13;;;;;;;13.23;2.68;;;;;;;9.85;78.83;100707.09;126337;1096;25729;-59
2021/05/29 02:04:43;;;;;;;9.00;2.43;;;;;;;9.82;78.75;100701.67;126425;1101;22758;-59
2021/05/29 02:07:13;;;;;;;7.20;2.50;;;;;;;9.80;78.84;100713.30;126633;1101;23476;-59
2021/05/29 02:09:44;;;;;;;6.68;2.13;;;;;;;9.76;78.88;100712.67;127005;1097;22722;-60
2021/05/29 02:12:15;;;;;;;10.60;2.85;;;;;;;9.71;78.90;100702.12;126459;1101;22737;-60
2021/05/29 02:14:45;;;;;;;12.57;2.70;;;;;;;9.68;78.98;100711.42;126669;1096;22756;-58
2021/05/29 02:17:14;;;;;;;;;;;;;;;9.64;79.18;100716.37;126259;1102;22906;-58
2021/05/29 02:19:44;;;;;;;8.73;2.37;;;;;;;9.58;79.08;100712.64;126338;1097;25690;-58
2021/05/29 02:22:17;;;;;;;9.10;2.40;;;;;;;9.53;79.25;100711.23;126245;1101;22761;-58
2021/05/29 02:24:46;;;;;;;10.33;2.47;;;;;;;9.50;79.27;100716.93;126132;1096;22745;-59
2021/05/29 02:27:16;;;;;;;9.03;2.73;;;;;;;9.48;79.30;100717.39;126314;1101;22928;-59
2021/05/29 02:29:47;;;;;;;9.63;2.60;;;;;;;9.45;79.31;100717.55;126293;1101;23271;-57
2021/05/29 02:32:17;;;;;;;11.75;3.18;;;;;;;9.43;79.28;100714.45;126229;1096;27584;-58
2021/05/29 02:34:47;;;;;;;12.60;2.83;;;;;;;9.38;79.55;100718.61;126267;1101;22797;-59
2021/05/29 02:37:18;;;;;;;7.73;2.67;;;;;;;9.34;79.54;100712.41;126357;1096;22704;-57
2021/05/29 02:39:49;;;;;;;8.50;2.50;;;;;;;9.32;79.67;100717.66;126000;1104;22766;-59
2021/05/29 02:42:20;;;;;;;;;;;;;;;9.28;79.67;100716.24;126406;1101;22803;-58
2021/05/29 02:44:50;;;;;;;14.13;3.10;;;;;;;9.25;79.68;100720.72;126381;1097;21526;-60
2021/05/29 02:47:22;;;;;;;8.80;2.60;;;;;;;9.21;79.78;100733.26;126203;1101;24197;-60
2021/05/29 02:49:52;;;;;;;11.80;2.97;;;;;;;9.18;79.92;100725.80;126127;1097;27322;-59
2021/05/29 02:52:22;;;;;;;11.25;3.30;;;;;;;9.13;80.02;100729.95;126019;1101;22744;-60
2021/05/29 02:54:54;;;;;;;10.23;3.33;;;;;;;9.11;80.09;100732.42;127782;1101;24390;-61
2021/05/29 02:57:24;;;;;;;11.77;2.80;;;;;;;9.07;80.03;100739.36;126020;1096;22764;-58
2021/05/29 02:59:54;;;;;;;11.33;2.73;;;;;;;9.03;80.08;100749.86;126356;1097;24434;-59
2021/05/29 03:02:24;;;;;;;11.13;3.00;;;;;;;9.01;80.19;100747.54;126257;1097;26203;-61
2021/05/29 03:04:54;;;;;;;8.75;2.65;;;;;;;9.00;80.01;100748.00;126328;1096;26459;-60
2021/05/29 03:07:25;;;;;;;11.05;3.63;;;;;;;8.99;80.33;100752.79;126322;1096;25695;-58
2021/05/29 03:09:54;;;;;;;9.93;3.03;;;;;;;8.96;80.37;100748.12;126393;1101;22696;-61
2021/05/29 03:12:25;;;;;;;13.05;3.15;;;;;;;8.93;80.40;100752.61;126296;1097;22721;-61
2021/05/29 03:14:55;;;;;;;11.37;3.67;;;;;;;8.90;80.53;100747.16;126317;1096;22704;-61
2021/05/29 03:17:26;;;;;;;11.80;3.18;;;;;;;8.87;80.63;100746.09;126345;1101;25677;-59
2021/05/29 03:19:54;;;;;;;;;;;;;;;8.86;80.69;100749.30;126187;1104;22726;-59
2021/05/29 03:22:24;;;;;;;9.17;2.93;;;;;;;8.87;80.59;100748.08;126292;1101;24195;-59
2021/05/29 03:24:55;;;;;;;12.90;3.88;;;;;;;8.87;80.72;100742.52;126068;1101;24383;-57
2021/05/29 03:27:25;;;;;;;10.13;2.90;;;;;;;8.88;80.59;100749.63;126208;1101;22802;-60
2021/05/29 03:29:54;;;;;;;;;;;;;;;8.88;80.78;100752.41;126346;1096;25890;-59
2021/05/29 03:32:26;;;;;;;12.03;3.17;;;;;;;8.87;80.80;100757.22;126052;1102;23114;-59
2021/05/29 03:35:00;;;;;;;10.97;3.90;;;;;;;8.85;80.92;100756.91;126265;1101;22780;-58
2021/05/29 03:37:30;;;;;;;11.27;3.10;;;;;;;8.84;80.85;100752.55;126247;1101;22744;-60
2021/05/29 03:40:00;;;;;;;10.18;2.90;;;;;;;8.86;80.74;100764.00;126325;1096;26213;-60
2021/05/29 03:42:29;;;;;;;12.18;3.65;;;;;;;8.86;80.86;100761.22;126573;1097;22822;-56
2021/05/29 03:45:00;;;;;;;10.73;2.97;;;;;;;8.87;80.96;100767.58;126346;1097;22768;-59
2021/05/29 03:47:31;;;;;;;10.30;3.33;;;;;;;8.87;80.84;100762.79;126315;1097;25899;-59
2021/05/29 03:50:01;;;;;;;11.53;3.38;;;;;;;8.87;80.95;100767.58;126231;1101;22737;-60
2021/05/29 03:52:33;;;;;;;11.70;3.33;;;;;;;8.88;81.08;100769.11;126360;1096;22834;-59
2021/05/29 03:55:05;;;;;;;13.60;3.77;;;;;;;8.90;80.78;100767.43;126358;1101;22800;-60
2021/05/29 03:57:36;;;;;;;13.33;4.13;;;;;;;8.91;80.86;100765.43;126376;1101;22733;-61
2021/05/29 04:00:13;;;;;;;11.05;3.65;;;;;;;8.92;80.74;100758.61;126328;1096;22777;-60
2021/05/29 04:02:43;;;;;;;10.57;2.73;;;;;;;8.93;80.75;100757.40;126355;1096;26499;-60
2021/05/29 04:05:15;;;;;;;9.80;3.50;;;;;;;8.96;80.74;100753.69;126089;1097;22764;-61
2021/05/29 04:07:46;;;;;;;12.17;4.23;;;;;;;8.96;80.73;100762.83;125999;1096;25691;-59
2021/05/29 04:10:19;;;;;;;12.67;3.70;;;;;;;9.01;80.84;100760.68;126421;1097;22726;-60
2021/05/29 04:12:50;;;;;;;13.37;3.77;;;;;;;9.04;80.88;100759.78;126407;1096;22758;-60
2021/05/29 04:15:21;;;;;;;10.40;3.50;;;;;;;9.07;80.90;100770.00;126283;1101;22903;-62
2021/05/29 04:17:52;;;;;;;11.73;3.77;;;;;;;9.09;80.67;100765.53;126335;1101;22728;-60
2021/05/29 04:20:21;;;;;;;;;;;;;;;9.16;80.66;100764.48;126405;1101;24431;-59
2021/05/29 04:22:52;;;;;;;10.67;3.27;;;;;;;9.22;80.74;100762.66;126337;1097;24412;-60
2021/05/29 04:25:26;;;;;;;10.50;3.40;;;;;;;9.28;80.61;100769.17;126279;1101;24564;-59
2021/05/29 04:27:57;;;;;;;13.95;3.45;;;;;;;9.33;80.64;100771.38;126372;1097;26886;-59
2021/05/29 04:30:29;;;;;;;12.45;4.15;;;;;;;9.35;80.37;100766.13;126289;1097;22736;-58
2021/05/29 04:33:00;;;;;;;13.03;3.67;;;;;;;9.38;80.43;100771.55;126302;1096;22723;-59
2021/05/29 04:35:30;;;;;;;9.47;3.00;;;;;;;9.38;80.03;100771.55;126329;1096;22798;-60
2021/05/29 04:38:00;;;;;;;12.33;3.95;;;;;;;9.40;80.24;100765.52;126484;1101;23589;-60
2021/05/29 04:40:30;;;;;;;12.33;3.25;;;;;;;9.43;80.00;100767.39;126358;1096;22741;-59
2021/05/29 04:43:02;;;;;;;10.85;3.50;;;;;;;9.49;80.06;100769.13;126322;1101;22744;-59
2021/05/29 04:45:32;;;;;;;10.27;3.20;;;;;;;9.54;79.90;100773.30;126312;1101;24272;-58
2021/05/29 04:48:01;;;;;;;;;;;;;;;9.52;79.85;100767.41;126614;1096;26317;-59
2021/05/29 04:50:31;;;;;;;11.90;3.17;;;;;;;9.56;79.96;100768.05;126291;1097;23546;-61
2021/05/29 04:53:01;;;;;;;10.33;3.13;;;;;;;9.61;79.94;100775.81;126296;1101;22755;-60
2021/05/29 04:55:31;;;;;;;10.40;3.27;;;;;;;9.68;79.86;100776.30;126321;1101;23276;-59
2021/05/29 04:58:01;;;;;;;12.60;3.78;;;;;;;9.71;79.68;100780.18;126273;1095;27250;-59
2021/05/29 05:00:31;;;;;;;11.95;3.45;;;;;;;9.74;79.82;100774.45;126227;1101;22790;-61
2021/05/29 05:03:02;;;;;;;10.23;3.43;;;;;;;9.81;79.64;100778.21;126291;1101;22809;-61
2021/05/29 05:05:32;;;;;;;9.40;3.07;;;;;;;9.83;79.29;100786.89;126234;1096;25704;-60
2021/05/29 05:08:02;;;;;;;12.33;3.83;;;;;;;9.80;79.32;100783.00;126138;1097;25736;-59
2021/05/29 05:10:34;;;;;;;11.10;3.33;;;;;;;9.78;79.19;100782.69;126182;1096;25874;-61
2021/05/29 05:13:04;;;;;;;11.67;3.70;;;;;;;9.78;79.17;100774.33;126366;1101;24200;-60
2021/05/29 05:15:34;;;;;;;11.63;3.73;;;;;;;9.87;79.35;100770.79;126221;1101;22737;-60
2021/05/29 05:18:07;;;;;;;;;;;;;;;9.91;79.19;100780.53;126393;1101;22707;-61
2021/05/29 05:20:38;;;;;;;12.40;2.90;;;;;;;9.93;79.09;100783.64;126211;1101;21467;-59
2021/05/29 05:23:08;;;;;;;10.00;3.27;;;;;;;9.94;79.01;100782.42;126166;1101;22750;-61
2021/05/29 05:25:42;;;;;;;9.75;2.65;;;;;;;9.94;78.96;100779.63;126218;1097;22719;-59
2021/05/29 05:28:12;;;;;;;9.77;3.03;;;;;;;9.96;78.83;100779.94;126164;1101;22784;-61
2021/05/29 05:30:43;;;;;;;9.37;3.10;;;;;;;10.00;78.83;100788.94;126412;1101;22719;-60
2021/05/29 05:33:13;;;;;;;10.10;2.97;;;;;;;10.04;78.86;100786.77;126516;1101;23193;-60
2021/05/29 05:35:43;;;;;;;11.10;3.58;;;;;;;10.11;78.90;100786.52;126351;1096;27346;-60
2021/05/29 05:38:13;;;;;;;12.13;3.33;;;;;;;10.17;78.55;100784.66;126329;1095;26327;-59
2021/05/29 05:40:43;;;;;;;12.80;3.93;;;;;;;10.24;78.38;100784.34;126300;1101;22737;-60
2021/05/29 05:43:13;;;;;;;12.28;3.73;;;;;;;10.30;78.43;100790.10;126176;1096;25752;-60
2021/05/29 05:45:42;;;;;;;;;;;;;;;10.39;78.29;100784.50;125727;1096;27106;-60
2021/05/29 05:48:12;;;;;;;12.83;3.43;;;;;;;10.44;78.47;100786.69;126164;1101;21572;-62
2021/05/29 05:50:53;;;;;;;11.60;4.03;;;;;;;10.55;77.94;100790.55;125976;1097;26200;-61
2021/05/29 05:53:22;;;;;;;;;;;;;;;10.64;78.35;100794.58;125949;1101;22741;-62
2021/05/29 05:56:00;;;;;;;13.80;3.80;;;;;;;10.75;78.22;100795.67;126025;1101;21461;-61
2021/05/29 05:58:31;;;;;;;9.20;3.20;;;;;;;10.83;77.69;100801.71;125947;1101;22817;-60
2021/05/29 06:01:01;;;;;;;10.50;3.43;;;;;;;10.88;77.71;100790.70;125963;1101;22744;-61
2021/05/29 06:03:31;;;;;;;11.23;3.03;;;;;;;10.95;77.68;100806.34;125904;1101;22734;-58
2021/05/29 06:06:01;;;;;;;12.73;4.00;;;;;;;11.03;77.46;100790.80;126048;1101;22734;-58
2021/05/29 06:08:31;;;;;;;10.20;3.13;;;;;;;11.12;77.50;100790.80;126294;1101;22755;-56
2021/05/29 06:11:01;;;;;;;13.40;4.13;;;;;;;11.19;76.66;100796.82;126110;1101;22740;-62
2021/05/29 06:17:57;;;;;;;11.58;3.63;;;;;;;11.27;76.62;100805.67;126050;1101;23485;-61
2021/05/29 06:19:15;;;;;;;9.47;2.97;;;;;;;11.38;76.26;100798.32;126046;1101;22764;-61
2021/05/29 06:21:47;;;;;;;11.17;3.83;;;;;;;11.48;76.00;100812.28;126383;1101;22761;-60
2021/05/29 06:24:20;;;;;;;11.60;3.20;;;;;;;11.54;75.38;100807.59;126380;1101;22862;-62
2021/05/29 06:26:51;;;;;;;10.00;2.90;;;;;;;11.59;75.57;100804.92;125985;1095;27135;-61
2021/05/29 06:29:23;;;;;;;10.87;2.87;;;;;;;11.66;75.07;100812.20;125831;1096;26463;-62
2021/05/29 06:31:53;;;;;;;11.70;2.95;;;;;;;11.75;74.63;100817.80;125964;1101;25366;-62
2021/05/29 06:34:24;;;;;;;9.25;3.13;;;;;;;11.76;74.70;100808.92;125880;1101;24324;-63
2021/05/29 06:36:56;;;;;;;9.15;2.90;;;;;;;11.85;74.64;100796.91;126120;1101;22755;-61
2021/05/29 06:39:26;;;;;;;8.53;2.53;;;;;;;12.00;74.99;100803.37;126053;1101;22737;-62
2021/05/29 06:41:56;;;;;;;8.45;2.70;;;;;;;12.13;74.45;100801.09;126043;1101;24457;-61
2021/05/29 06:44:27;;;;;;;10.28;2.90;;;;;;;12.15;73.88;100792.99;125934;1097;24252;-60
2021/05/29 06:46:57;;;;;;;12.03;2.95;;;;;;;12.23;74.26;100799.77;125968;1096;27125;-61
2021/05/29 06:49:27;;;;;;;8.73;2.33;;;;;;;12.29;73.45;100792.27;126195;1097;22759;-62
2021/05/29 06:52:00;;;;;;;8.88;2.45;;;;;;;12.34;73.74;100802.03;125901;1096;25813;-62
2021/05/29 06:54:41;;;;;;;7.95;2.50;;;;;;;12.43;73.09;100799.18;125882;1096;26213;-63
2021/05/29 06:59:58;;;;;;;8.70;2.10;;;;;;;12.56;72.24;100797.66;125935;1101;22766;-62
2021/05/29 07:02:28;;;;;;;9.08;2.40;;;;;;;12.60;72.07;100795.44;125908;1101;24168;-60
2021/05/29 07:04:58;;;;;;;7.80;2.80;;;;;;;12.66;72.93;100793.52;125883;1101;22741;-60
2021/05/29 07:07:29;;;;;;;10.50;2.50;;;;;;;12.74;71.73;100802.34;125940;1101;22728;-60
2021/05/29 07:09:59;;;;;;;6.77;1.90;;;;;;;12.80;71.42;100792.80;125968;1101;22745;-62
2021/05/29 07:12:29;;;;;;;7.35;1.88;;;;;;;12.87;71.33;100800.80;125893;1096;26245;-63
2021/05/29 07:14:59;;;;;;;6.85;1.90;;;;;;;12.96;69.65;100802.75;125899;1096;26235;-62
2021/05/29 07:17:31;;;;;;;9.43;1.97;;;;;;;13.00;70.11;100801.31;125991;1097;23067;-61
2021/05/29 07:20:01;;;;;;;8.25;2.00;;;;;;;13.07;70.24;100793.80;126104;1101;22737;-60
2021/05/29 07:22:34;;;;;;;8.40;2.50;;;;;;;13.11;70.55;100797.97;126121;1101;22758;-60
2021/05/29 07:25:04;;;;;;;6.40;2.17;;;;;;;13.20;70.22;100803.45;126001;1101;22734;-63
2021/05/29 07:27:34;;;;;;;7.38;1.98;;;;;;;13.21;69.71;100802.21;125929;1095;27167;-62
2021/05/29 07:30:07;;;;;;;7.70;1.60;;;;;;;13.21;68.02;100805.02;126013;1096;25835;-61
2021/05/29 07:32:37;;;;;;;6.50;1.70;;;;;;;13.18;68.55;100805.97;125972;1097;26883;-60
2021/05/29 07:35:09;;;;;;;6.65;2.00;;;;;;;13.12;68.80;100812.77;125795;1101;22754;-60
2021/05/29 07:37:39;;;;;;;9.30;1.75;;;;;;;13.06;69.26;100806.25;125992;1096;27301;-61
2021/05/29 07:40:10;;;;;;;5.83;1.65;;;;;;;13.04;69.23;100798.34;125776;1095;27349;-59
2021/05/29 07:42:40;;;;;;;6.50;1.70;;;;;;;12.98;67.96;100797.44;126007;1101;22878;-62
2021/05/29 07:45:14;;;;;;;7.40;1.80;;;;;;;12.89;68.10;100798.30;125951;1101;22765;-61
2021/05/29 07:47:45;;;;;;;7.20;1.50;;;;;;;12.82;67.85;100800.71;125967;1101;22741;-61
2021/05/29 07:50:16;;;;;;;5.25;1.60;;;;;;;12.79;68.87;100798.86;125861;1101;22751;-62
2021/05/29 07:52:46;;;;;;;6.78;1.60;;;;;;;12.77;68.73;100799.34;125830;1096;22762;-61
2021/05/29 07:55:15;;;;;;;;;;;;;;;12.74;67.76;100802.34;125779;1096;27264;-57
2021/05/29 07:57:45;;;;;;;5.73;1.50;;;;;;;12.68;67.20;100807.82;125789;1096;21527;-60
2021/05/29 08:00:22;;;;;;;8.15;1.50;;;;;;;12.63;67.84;100808.50;125724;1101;22761;-60
2021/05/29 08:02:52;;;;;;;5.05;1.50;;;;;;;12.61;68.01;100808.21;125844;1101;22906;-60
2021/05/29 08:05:22;;;;;;;;;;;;;;;12.65;67.90;100802.41;125982;1101;22775;-59
2021/05/29 08:07:53;;;;;;;8.60;2.10;;;;;;;12.70;68.82;100808.14;125970;1101;21465;-61
2021/05/29 08:10:23;;;;;;;6.55;1.70;;;;;;;12.74;68.24;100807.95;125884;1097;22810;-60
2021/05/29 08:12:54;;;;;;;10.00;2.18;;;;;;;12.82;69.17;100812.70;125870;1101;22734;-59
2021/05/29 08:15:24;;;;;;;7.27;1.87;;;;;;;12.90;67.73;100805.46;125768;1096;25864;-62
2021/05/29 08:17:53;;;;;;;;;;;;;;;12.90;68.06;100805.46;125867;1101;22810;-61
2021/05/29 08:20:23;;;;;;;7.60;1.90;;;;;;;12.92;67.97;100804.97;125757;1101;23170;-62
2021/05/29 08:22:53;;;;;;;11.60;2.30;;;;;;;12.96;68.57;100795.13;125755;1097;26495;-62
2021/05/29 08:25:23;;;;;;;8.78;2.23;;;;;;;13.11;68.39;100799.98;125735;1101;24441;-62
2021/05/29 08:27:54;;;;;;;5.10;1.73;;;;;;;13.25;67.76;100797.19;125737;1101;22784;-62
2021/05/29 08:30:24;;;;;;;5.20;1.30;;;;;;;13.34;67.20;100799.90;125838;1101;22761;-62
2021/05/29 08:32:54;;;;;;;7.93;1.30;;;;;;;13.42;67.00;100797.46;125745;1097;22814;-62
2021/05/29 08:35:26;;;;;;;4.70;1.40;;;;;;;13.48;66.09;100801.13;126030;1101;22875;-62
2021/05/29 08:37:54;;;;;;;;;;;;;;;13.52;66.44;100798.89;125898;1101;22768;-60
2021/05/29 08:40:24;;;;;;;9.20;1.30;;;;;;;13.61;66.42;100798.80;126005;1101;21928;-62
2021/05/29 08:42:54;;;;;;;5.15;1.23;;;;;;;13.64;66.33;100798.58;125790;1101;22761;-59
2021/05/29 08:45:25;;;;;;;6.23;1.50;;;;;;;13.64;66.58;100801.39;125922;1096;26353;-60
2021/05/29 08:47:57;;;;;;;8.60;2.30;;;;;;;13.65;66.34;100796.56;125889;1101;22805;-60
2021/05/29 08:50:28;;;;;;;7.07;2.23;;;;;;;13.60;66.78;100798.02;125781;1096;26451;-60
2021/05/29 08:52:58;;;;;;;8.90;2.85;;;;;;;13.60;66.63;100800.04;125700;1095;25900;-60
2021/05/29 08:55:29;;;;;;;6.40;1.98;;;;;;;13.56;66.42;100796.66;125692;1095;28372;-59
2021/05/29 08:57:59;;;;;;;6.10;1.70;;;;;;;13.61;66.19;100795.98;125748;1097;26616;-60
2021/05/29 09:00:31;;;;;;;9.05;1.60;;;;;;;13.63;64.80;100801.88;125883;1101;22765;-59
2021/05/29 09:03:04;;;;;;;8.60;1.57;;;;;;;13.62;65.16;100800.33;125699;1101;22734;-58
2021/05/29 09:05:49;;;;;;;7.60;1.70;;;;;;;13.62;64.99;100803.13;126154;1095;25915;-58
2021/05/29 09:08:21;;;;;;;7.80;1.70;;;;;;;13.63;65.14;100801.88;130069;1101;22518;-59
2021/05/29 09:10:53;;;;;;;7.30;1.85;;;;;;;13.68;65.55;100798.38;129716;1101;23398;-59
2021/05/29 09:13:25;;;;;;;9.20;1.90;;;;;;;13.80;65.54;100800.11;125748;1101;22910;-58
2021/05/29 09:15:57;;;;;;;7.60;2.55;;;;;;;13.90;64.88;100797.95;126091;1101;22768;-59
2021/05/29 09:18:36;;;;;;;6.95;1.90;;;;;;;14.00;65.32;100802.17;125811;1095;22833;-62
2021/05/29 09:21:21;;;;;;;8.80;2.10;;;;;;;14.06;65.46;100800.20;125810;1096;26268;-59
2021/05/29 09:23:54;;;;;;;11.47;2.43;;;;;;;14.10;65.23;100803.58;125881;1101;23064;-61
2021/05/29 09:26:40;;;;;;;10.15;2.00;;;;;;;14.09;64.92;100802.80;125862;1101;22829;-60
2021/05/29 09:29:18;;;;;;;11.07;2.10;;;;;;;14.10;65.22;100801.55;125861;1101;22813;-59
2021/05/29 09:31:57;;;;;;;9.70;2.20;;;;;;;14.15;65.25;100797.28;126008;1095;25865;-60
2021/05/29 09:34:33;;;;;;;8.50;2.00;;;;;;;14.20;64.65;100799.37;125919;1101;22741;-60
2021/05/29 09:37:12;;;;;;;7.37;1.93;;;;;;;14.24;64.79;100800.71;125941;1096;26228;-59
2021/05/29 09:39:43;;;;;;;8.73;2.13;;;;;;;14.27;64.52;100796.16;126026;1101;22816;-62
2021/05/29 09:42:17;;;;;;;7.50;2.00;;;;;;;14.24;64.05;100803.52;126038;1096;27167;-61
2021/05/29 09:44:47;;;;;;;6.90;1.95;;;;;;;14.25;64.81;100791.03;125901;1101;22734;-62
2021/05/29 09:47:24;;;;;;;6.93;1.90;;;;;;;14.28;64.50;100795.69;125853;1096;27597;-60
2021/05/29 09:49:58;;;;;;;6.50;1.50;;;;;;;14.29;64.14;100794.44;125876;1101;22764;-60
2021/05/29 09:52:35;;;;;;;5.30;1.50;;;;;;;14.25;63.79;100798.69;126049;1101;22750;-60
2021/05/29 09:55:07;;;;;;;8.50;2.47;;;;;;;14.26;63.92;100789.76;125862;1101;22758;-61
2021/05/29 09:57:53;;;;;;;5.90;1.40;;;;;;;14.31;64.32;100791.91;125969;1097;26198;-60
2021/05/29 10:00:24;;;;;;;7.80;1.85;;;;;;;14.43;64.06;100781.57;125925;1101;22910;-60
2021/05/29 10:03:00;;;;;;;6.70;2.10;;;;;;;14.50;63.56;100789.58;125901;1101;22819;-61
2021/05/29 10:05:35;;;;;;;6.25;1.70;;;;;;;14.50;62.80;100798.77;125910;1101;22744;-61
2021/05/29 10:08:06;;;;;;;5.60;1.60;;;;;;;14.45;62.75;100787.47;125910;1096;27132;-61
2021/05/29 10:10:36;;;;;;;4.57;1.20;;;;;;;14.55;61.94;100791.67;125905;1101;22761;-60
2021/05/29 10:13:06;;;;;;;7.75;1.78;;;;;;;14.52;62.57;100789.86;125859;1101;22812;-60
2021/05/29 10:15:36;;;;;;;7.20;1.33;;;;;;;14.49;62.53;100779.59;125949;1095;26059;-60
2021/05/29 10:18:09;;;;;;;6.40;1.97;;;;;;;14.55;63.06;100794.48;126013;1101;22768;-60
2021/05/29 10:20:39;;;;;;;5.10;1.40;;;;;;;14.55;62.61;100786.83;125899;1101;22735;-61
2021/05/29 10:23:09;;;;;;;7.17;1.53;;;;;;;14.50;61.97;100795.95;126049;1096;26250;-60
2021/05/29 10:25:39;;;;;;;9.45;1.88;;;;;;;14.36;62.33;100794.00;125776;1097;28473;-60
2021/05/29 10:28:14;;;;;;;7.50;1.65;;;;;;;14.21;61.74;100793.28;125849;1101;24458;-61
2021/05/29 10:30:44;;;;;;;7.85;1.50;;;;;;;14.09;63.12;100785.95;125922;1101;22758;-62
2021/05/29 10:33:16;;;;;;;4.95;1.20;;;;;;;14.11;62.44;100782.67;125918;1101;22740;-62
2021/05/29 10:35:47;;;;;;;6.47;1.60;;;;;;;14.16;63.26;100781.96;125855;1101;24151;-62
2021/05/29 10:38:16;;;;;;;;;;;;;;;14.28;63.53;100786.45;125858;1101;22897;-62
2021/05/29 10:40:48;;;;;;;7.10;1.83;;;;;;;14.26;63.50;100781.33;125819;1096;21462;-60
2021/05/29 10:43:20;;;;;;;7.70;1.90;;;;;;;14.25;63.08;100779.03;126144;1095;26990;-60
2021/05/29 10:46:10;;;;;;;9.10;2.10;;;;;;;14.25;64.03;100770.60;125872;1101;24394;-59
2021/05/29 10:48:49;;;;;;;8.33;1.93;;;;;;;14.26;63.67;100766.52;125860;1101;23481;-62
2021/05/29 10:51:19;;;;;;;8.43;2.17;;;;;;;14.24;63.90;100772.63;125980;1097;27177;-60
2021/05/29 10:53:52;;;;;;;5.40;1.55;;;;;;;14.19;62.67;100778.19;125943;1096;27132;-68
2021/05/29 10:56:33;;;;;;;7.80;1.40;;;;;;;14.06;62.98;100781.33;125911;1101;22728;-60
2021/05/29 10:59:09;;;;;;;5.65;1.40;;;;;;;13.91;63.15;100779.83;125951;1101;22816;-62
2021/05/29 11:02:09;;;;;;;9.57;1.80;;;;;;;13.85;63.77;100776.17;125864;1101;23463;-60
2021/05/29 11:04:39;;;;;;;9.93;1.70;;;;;;;13.87;64.09;100766.01;126201;1101;22816;-62
2021/05/29 11:07:27;;;;;;;6.78;1.53;;;;;;;13.98;63.85;100768.20;125890;1096;22817;-59
2021/05/29 11:09:58;;;;;;;8.63;2.03;;;;;;;14.11;64.08;100772.20;125920;1101;22838;-59
2021/05/29 11:12:53;;;;;;;6.43;2.00;;;;;;;14.21;63.79;100759.59;125904;1096;27990;-60
2021/05/29 11:16:03;;;;;;;5.57;1.83;;;;;;;14.31;63.89;100758.20;125831;1101;22722;-59
2021/05/29 11:18:32;;;;;;;10.98;2.53;;;;;;;14.50;63.77;100753.06;125421;1104;22753;-59
2021/05/29 11:21:09;;;;;;;6.65;2.08;;;;;;;14.57;63.68;100753.39;125536;1100;24427;-60
2021/05/29 11:23:39;;;;;;;8.23;2.13;;;;;;;14.66;64.05;100757.30;125797;1100;23460;-59
2021/05/29 11:26:24;;;;;;;5.58;1.65;;;;;;;14.69;62.95;100745.84;125626;1104;23522;-61
2021/05/29 11:29:01;;;;;;;7.40;1.70;;;;;;;14.68;62.66;100743.53;125503;1104;22981;-61
2021/05/29 11:31:42;;;;;;;6.13;1.30;;;;;;;14.60;61.70;100734.78;126190;1104;22766;-59
2021/05/29 11:34:12;;;;;;;6.35;1.70;;;;;;;14.48;62.47;100755.59;125423;1104;22831;-61
2021/05/29 11:36:44;;;;;;;5.18;1.73;;;;;;;14.36;62.94;100739.88;125560;1104;22838;-58
2021/05/29 11:39:17;;;;;;;5.90;1.23;;;;;;;14.30;63.97;100744.63;125532;1104;22932;-59
2021/05/29 11:41:47;;;;;;;6.85;1.40;;;;;;;14.35;64.31;100750.34;125434;1098;25909;-61
2021/05/29 11:44:25;;;;;;;4.28;1.03;;;;;;;14.40;61.45;100737.63;125496;1105;24279;-60
2021/05/29 11:46:56;;;;;;;4.20;1.10;;;;;;;14.48;62.26;100733.12;125489;1104;23206;-58